Time;durP1;ratioP1;P1;durP2;ratioP2;P2;SDS_P1;SDS_P2;PMS_P1;PMS_P2;Temp;Humidity;BMP_temperature;BMP_pressure;BME280_temperature;BME280_humidity;BME280_pressure;Samples;Min_cycle;Max_cycle;Signal;HPM_P1;HPM_P2
2023/04/19 00:01:07;;;;;;;28.65;22.75;;;12.60;99.90;;;;;;5050274;28;20403;-74
2023/04/19 00:03:33;;;;;;;30.50;22.83;;;12.60;99.90;;;;;;5051525;28;20033;-74
2023/04/19 00:05:59;;;;;;;31.55;24.25;;;12.50;99.90;;;;;;5052760;28;20430;-74
2023/04/19 00:08:25;;;;;;;33.53;23.88;;;12.50;99.90;;;;;;5052721;28;20040;-75
2023/04/19 00:10:51;;;;;;;30.85;24.42;;;12.40;99.90;;;;;;5050848;28;20025;-74
2023/04/19 00:13:17;;;;;;;30.05;24.77;;;12.20;99.90;;;;;;5049524;28;20044;-74
2023/04/19 00:15:44;;;;;;;31.77;23.77;;;12.20;99.90;;;;;;5051011;28;20029;-75
2023/04/19 00:18:10;;;;;;;31.70;24.05;;;12.10;99.90;;;;;;5050530;28;20044;-74
2023/04/19 00:20:37;;;;;;;32.90;24.73;;;11.90;99.90;;;;;;5051552;28;20029;-74
2023/04/19 00:23:03;;;;;;;32.22;23.65;;;11.80;99.90;;;;;;5052027;28;20399;-74
2023/04/19 00:25:30;;;;;;;34.88;23.90;;;11.70;99.90;;;;;;5052366;28;20032;-74
2023/04/19 00:27:56;;;;;;;31.30;23.63;;;11.60;99.90;;;;;;5051279;28;20036;-75
2023/04/19 00:30:22;;;;;;;33.58;24.02;;;11.60;99.90;;;;;;5051996;28;20048;-74
2023/04/19 00:32:49;;;;;;;33.60;23.38;;;11.60;99.90;;;;;;5052332;28;20013;-74
2023/04/19 00:35:15;;;;;;;33.80;23.40;;;11.60;99.90;;;;;;5051150;28;20044;-74
2023/04/19 00:37:41;;;;;;;31.08;22.88;;;11.50;99.90;;;;;;5050371;28;20048;-74
2023/04/19 00:40:07;;;;;;;29.70;22.65;;;11.40;99.90;;;;;;5051448;28;20499;-74
2023/04/19 00:42:34;;;;;;;32.00;22.17;;;11.30;99.90;;;;;;5032212;28;20039;-75
2023/04/19 00:45:01;;;;;;;29.17;22.13;;;11.30;99.90;;;;;;5028781;28;20040;-74
2023/04/19 00:47:27;;;;;;;30.15;21.92;;;11.30;99.90;;;;;;5049542;28;20037;-75
2023/04/19 00:49:54;;;;;;;27.17;21.83;;;11.30;99.90;;;;;;5050742;28;20021;-75
2023/04/19 00:52:21;;;;;;;33.28;22.88;;;11.30;99.90;;;;;;5050125;28;20048;-74
2023/04/19 00:54:47;;;;;;;31.77;23.63;;;11.30;99.90;;;;;;5044911;28;20025;-75
2023/04/19 00:57:15;;;;;;;28.13;21.80;;;11.30;99.90;;;;;;5047363;28;20045;-74
2023/04/19 00:59:41;;;;;;;31.35;22.17;;;11.20;99.90;;;;;;5034513;28;20017;-74
2023/04/19 01:02:08;;;;;;;29.48;21.35;;;11.00;99.90;;;;;;5033647;28;20372;-74
2023/04/19 01:04:34;;;;;;;32.55;22.98;;;11.00;99.90;;;;;;5051113;28;20353;-74
2023/04/19 01:07:01;;;;;;;28.23;21.83;;;11.00;99.90;;;;;;5050309;28;20040;-74
2023/04/19 01:09:27;;;;;;;29.08;22.17;;;10.90;99.90;;;;;;5050009;28;20029;-75
2023/04/19 01:11:54;;;;;;;34.90;22.40;;;10.90;99.90;;;;;;5048768;28;20420;-75
2023/04/19 01:14:20;;;;;;;30.00;22.23;;;10.80;99.90;;;;;;5049207;28;20025;-74
2023/04/19 01:16:46;;;;;;;32.65;21.85;;;10.80;99.90;;;;;;5051311;28;20058;-74
2023/04/19 01:19:12;;;;;;;28.83;22.17;;;10.80;99.90;;;;;;5050730;28;20383;-74
2023/04/19 01:21:39;;;;;;;31.02;21.50;;;10.70;99.90;;;;;;5045649;28;20032;-74
2023/04/19 01:24:05;;;;;;;30.98;22.38;;;10.70;99.90;;;;;;5050687;28;20029;-74
2023/04/19 01:26:32;;;;;;;30.88;22.55;;;10.70;99.90;;;;;;5051529;28;20048;-74
2023/04/19 01:28:58;;;;;;;30.45;22.00;;;10.60;99.90;;;;;;5051283;28;20471;-75
2023/04/19 01:31:24;;;;;;;29.48;21.17;;;10.60;99.90;;;;;;5054654;28;20104;-74
2023/04/19 01:33:50;;;;;;;31.10;22.88;;;10.60;99.90;;;;;;5053872;28;20405;-74
2023/04/19 01:36:16;;;;;;;31.13;23.48;;;10.60;99.90;;;;;;5053704;28;20033;-75
2023/04/19 01:38:42;;;;;;;32.63;22.98;;;10.60;99.90;;;;;;5055578;28;20479;-74
2023/04/19 01:41:08;;;;;;;32.53;22.00;;;10.60;99.90;;;;;;5052037;28;20033;-74
2023/04/19 01:43:34;;;;;;;29.15;23.27;;;10.60;99.90;;;;;;5053607;28;20032;-75
2023/04/19 01:46:00;;;;;;;30.70;22.33;;;10.50;99.90;;;;;;5053698;28;20494;-74
2023/04/19 01:48:26;;;;;;;28.85;22.77;;;10.50;99.90;;;;;;5033838;28;20049;-74
2023/04/19 01:50:53;;;;;;;29.98;23.13;;;10.50;99.90;;;;;;5042191;28;20364;-74
2023/04/19 01:53:19;;;;;;;31.55;23.70;;;10.50;99.90;;;;;;5055006;28;20041;-75
2023/04/19 01:55:45;;;;;;;36.75;24.27;;;10.50;99.90;;;;;;5054816;28;20033;-74
2023/04/19 01:58:11;;;;;;;36.67;24.35;;;10.40;99.90;;;;;;5035609;28;20080;-74
2023/04/19 02:00:37;;;;;;;30.27;23.42;;;10.40;99.90;;;;;;5053104;28;20041;-74
2023/04/19 02:03:03;;;;;;;34.40;23.75;;;10.40;99.90;;;;;;5049636;28;20041;-75
2023/04/19 02:05:29;;;;;;;31.08;23.73;;;10.50;99.90;;;;;;5047171;28;20398;-75
2023/04/19 02:07:55;;;;;;;36.08;24.13;;;10.40;99.90;;;;;;5049368;28;20029;-75
2023/04/19 02:10:21;;;;;;;34.60;25.25;;;10.40;99.90;;;;;;5044754;28;20478;-75
2023/04/19 02:12:47;;;;;;;33.00;24.45;;;10.30;99.90;;;;;;5053356;28;20029;-74
2023/04/19 02:15:14;;;;;;;32.97;23.70;;;10.30;99.90;;;;;;5053091;28;20383;-75
2023/04/19 02:17:40;;;;;;;32.38;23.15;;;10.20;99.90;;;;;;5053315;28;20052;-74
2023/04/19 02:20:07;;;;;;;34.33;24.83;;;10.20;99.90;;;;;;5052652;28;20391;-75
2023/04/19 02:22:34;;;;;;;34.20;24.17;;;10.30;99.90;;;;;;5051693;28;20049;-74
2023/04/19 02:25:00;;;;;;;34.08;24.30;;;10.30;99.90;;;;;;5046717;28;20036;-75
2023/04/19 02:27:26;;;;;;;31.70;23.35;;;10.40;99.90;;;;;;5032057;28;20046;-75
2023/04/19 02:29:52;;;;;;;33.88;23.70;;;10.40;99.90;;;;;;5032257;28;20021;-75
2023/04/19 02:32:18;;;;;;;32.25;23.45;;;10.20;99.90;;;;;;5047875;28;20048;-75
2023/04/19 02:34:44;;;;;;;33.90;24.30;;;10.10;99.90;;;;;;5050515;28;20490;-74
2023/04/19 02:37:10;;;;;;;33.83;23.80;;;10.00;99.90;;;;;;5051769;28;20041;-74
2023/04/19 02:39:36;;;;;;;31.95;23.77;;;10.00;99.90;;;;;;5054275;28;20029;-74
2023/04/19 02:42:02;;;;;;;30.30;23.55;;;9.90;99.90;;;;;;5053573;28;20040;-73
2023/04/19 02:44:28;;;;;;;32.03;23.00;;;9.80;99.90;;;;;;5053851;28;20029;-74
2023/04/19 02:46:56;;;;;;;29.90;23.08;;;9.80;99.90;;;;;;5052715;28;20040;-74
2023/04/19 02:49:22;;;;;;;33.03;23.75;;;9.80;99.90;;;;;;5053443;28;20025;-74
2023/04/19 02:51:49;;;;;;;34.30;23.02;;;9.80;99.90;;;;;;5052387;28;20048;-74
2023/04/19 02:54:16;;;;;;;33.55;23.65;;;9.90;99.90;;;;;;5052922;28;20464;-74
2023/04/19 02:56:42;;;;;;;32.63;23.55;;;9.70;99.90;;;;;;5035353;28;20037;-74
2023/04/19 02:59:08;;;;;;;31.83;24.30;;;9.60;99.90;;;;;;5034896;28;20052;-74
2023/04/19 03:01:34;;;;;;;31.20;23.80;;;9.60;99.90;;;;;;5033718;28;20034;-74
2023/04/19 03:04:00;;;;;;;33.92;24.83;;;9.70;99.90;;;;;;5036130;28;20037;-74
2023/04/19 03:06:26;;;;;;;34.60;24.42;;;9.70;99.90;;;;;;5052340;28;20041;-74
2023/04/19 03:08:52;;;;;;;35.30;25.65;;;9.70;99.90;;;;;;5052219;28;20036;-74
2023/04/19 03:11:18;;;;;;;31.63;24.27;;;9.90;99.90;;;;;;5053628;28;20032;-74
2023/04/19 03:13:44;;;;;;;33.63;25.23;;;10.00;99.90;;;;;;5052300;28;20033;-74
2023/04/19 03:16:11;;;;;;;32.67;24.13;;;10.00;99.90;;;;;;5052841;28;20040;-74
2023/04/19 03:18:37;;;;;;;38.13;25.90;;;9.90;99.90;;;;;;5052858;28;20033;-74
2023/04/19 03:21:03;;;;;;;33.63;24.13;;;9.70;99.90;;;;;;5052565;28;20036;-74
2023/04/19 03:23:29;;;;;;;32.78;24.45;;;9.70;99.90;;;;;;5052430;28;20033;-74
2023/04/19 03:25:56;;;;;;;34.63;25.30;;;9.60;99.90;;;;;;5053233;28;20029;-74
2023/04/19 03:28:22;;;;;;;33.72;24.52;;;9.50;99.90;;;;;;5053452;28;20025;-74
2023/04/19 03:30:48;;;;;;;33.08;24.52;;;9.60;99.90;;;;;;5047044;28;20033;-74
2023/04/19 03:33:14;;;;;;;34.28;25.27;;;9.60;99.90;;;;;;5033668;28;20033;-74
2023/04/19 03:35:40;;;;;;;35.05;24.85;;;9.60;99.90;;;;;;5051707;28;20040;-74
2023/04/19 03:38:06;;;;;;;36.22;26.20;;;9.60;99.90;;;;;;5052002;28;20403;-73
2023/04/19 03:40:32;;;;;;;36.65;25.10;;;9.70;99.90;;;;;;5034942;28;20033;-74
2023/04/19 03:42:58;;;;;;;35.30;25.67;;;9.90;99.90;;;;;;5045836;28;20404;-74
2023/04/19 03:45:25;;;;;;;34.33;25.70;;;9.80;99.90;;;;;;5050118;28;20044;-74
2023/04/19 03:47:51;;;;;;;34.70;25.98;;;9.90;99.90;;;;;;5068722;28;20028;-74
2023/04/19 03:50:17;;;;;;;34.90;25.35;;;10.00;99.90;;;;;;5050925;28;20056;-74
2023/04/19 03:52:44;;;;;;;33.47;24.70;;;10.10;99.90;;;;;;5051808;28;20044;-74
2023/04/19 03:55:11;;;;;;;37.75;25.52;;;10.00;99.90;;;;;;5052412;28;20033;-74
2023/04/19 03:57:37;;;;;;;34.33;24.88;;;10.00;99.90;;;;;;5051512;28;20041;-74
2023/04/19 04:00:07;;;;;;;33.17;24.58;;;10.00;99.90;;;;;;5052019;28;20037;-73
2023/04/19 04:02:36;;;;;;;34.23;25.43;;;9.80;99.90;;;;;;5052016;28;20036;-74
2023/04/19 04:05:03;;;;;;;34.50;25.60;;;9.80;99.90;;;;;;5037483;28;20041;-74
2023/04/19 04:07:29;;;;;;;36.13;25.58;;;9.80;99.90;;;;;;5052837;28;20092;-74
2023/04/19 04:09:55;;;;;;;32.88;25.08;;;9.80;99.90;;;;;;5051617;28;20033;-74
2023/04/19 04:12:21;;;;;;;34.60;25.40;;;9.90;99.90;;;;;;5051147;28;20029;-74
2023/04/19 04:14:47;;;;;;;31.27;25.00;;;9.80;99.90;;;;;;5052722;28;20040;-73
2023/04/19 04:17:13;;;;;;;35.38;25.27;;;9.80;99.90;;;;;;5050072;28;20041;-74
2023/04/19 04:19:39;;;;;;;34.63;25.75;;;9.80;99.90;;;;;;5051315;28;20048;-74
2023/04/19 04:22:05;;;;;;;33.03;25.70;;;9.80;99.90;;;;;;5051072;28;20055;-74
2023/04/19 04:24:37;;;;;;;33.90;25.60;;;9.70;99.90;;;;;;5051100;28;20047;-74
2023/04/19 04:27:03;;;;;;;35.92;25.02;;;9.80;99.90;;;;;;5052719;28;20025;-74
2023/04/19 04:29:31;;;;;;;33.40;25.90;;;9.90;99.90;;;;;;5050331;28;20033;-74
2023/04/19 04:31:57;;;;;;;33.80;24.88;;;9.80;99.90;;;;;;5033771;28;20506;-74
2023/04/19 04:34:24;;;;;;;33.90;25.85;;;9.80;99.90;;;;;;5051127;28;20104;-74
2023/04/19 04:36:50;;;;;;;31.55;24.73;;;9.60;99.90;;;;;;5052238;28;20036;-74
2023/04/19 04:39:17;;;;;;;37.53;25.38;;;9.50;99.90;;;;;;5051549;28;20044;-74
2023/04/19 04:41:43;;;;;;;34.40;25.77;;;9.40;99.90;;;;;;5050512;28;20036;-74
2023/04/19 04:44:09;;;;;;;37.25;26.08;;;9.30;99.90;;;;;;5051594;28;20032;-74
2023/04/19 04:46:35;;;;;;;37.72;26.08;;;9.40;99.90;;;;;;5051810;28;20399;-74
2023/04/19 04:49:01;;;;;;;34.85;26.15;;;9.40;99.90;;;;;;5050252;28;20033;-74
2023/04/19 04:51:27;;;;;;;35.90;24.58;;;9.40;99.90;;;;;;5050858;28;20381;-72
2023/04/19 04:53:53;;;;;;;34.08;25.75;;;9.30;99.90;;;;;;5052227;28;20032;-74
2023/04/19 04:56:19;;;;;;;32.67;24.95;;;9.20;99.90;;;;;;5052034;28;20448;-74
2023/04/19 04:58:45;;;;;;;35.97;26.40;;;9.30;99.90;;;;;;5052078;28;20033;-74
2023/04/19 05:01:11;;;;;;;30.55;23.92;;;9.20;99.90;;;;;;5051320;28;20037;-74
2023/04/19 05:03:37;;;;;;;34.80;23.27;;;9.10;99.90;;;;;;5049864;28;20036;-74
2023/04/19 05:06:04;;;;;;;33.35;24.33;;;9.10;99.90;;;;;;5035658;28;20041;-74
2023/04/19 05:08:30;;;;;;;34.40;23.45;;;9.00;99.90;;;;;;5054710;28;20406;-74
2023/04/19 05:10:56;;;;;;;32.97;23.20;;;9.00;99.90;;;;;;5038031;28;20060;-74
2023/04/19 05:13:22;;;;;;;34.28;24.63;;;8.90;99.90;;;;;;5056583;28;20048;-74
2023/04/19 05:15:48;;;;;;;31.83;23.58;;;8.90;99.90;;;;;;5056186;28;20029;-74
2023/04/19 05:18:14;;;;;;;35.65;23.77;;;8.90;99.90;;;;;;5056550;28;20045;-74
2023/04/19 05:20:40;;;;;;;33.42;24.38;;;8.90;99.90;;;;;;5056257;28;20029;-74
2023/04/19 05:23:07;;;;;;;31.88;23.02;;;9.00;99.90;;;;;;5053182;28;20100;-74
2023/04/19 05:25:33;;;;;;;34.10;24.02;;;8.90;99.90;;;;;;5045357;28;20032;-74
2023/04/19 05:27:59;;;;;;;32.35;23.45;;;8.90;99.90;;;;;;5056764;28;20509;-73
2023/04/19 05:30:25;;;;;;;34.63;24.27;;;8.80;99.90;;;;;;5057903;28;20463;-74
2023/04/19 05:32:51;;;;;;;33.92;23.95;;;8.80;99.90;;;;;;5056441;28;20025;-74
2023/04/19 05:35:18;;;;;;;31.30;24.02;;;8.90;99.90;;;;;;5054670;28;20052;-74
2023/04/19 05:37:44;;;;;;;39.60;24.40;;;8.90;99.90;;;;;;5057593;28;20048;-74
2023/04/19 05:40:10;;;;;;;36.92;24.45;;;8.90;99.90;;;;;;5057239;28;20029;-74
2023/04/19 05:42:37;;;;;;;33.85;24.48;;;8.90;99.90;;;;;;5045716;28;20064;-75
2023/04/19 05:45:04;;;;;;;32.28;23.05;;;8.90;99.90;;;;;;5067015;28;20036;-74
2023/04/19 05:47:30;;;;;;;35.47;25.48;;;8.90;99.90;;;;;;5056592;28;20447;-74
2023/04/19 05:49:56;;;;;;;36.75;26.00;;;8.80;99.90;;;;;;5039799;28;20063;-74
2023/04/19 05:52:23;;;;;;;33.45;23.58;;;8.90;99.90;;;;;;5056801;28;20495;-74
2023/04/19 05:54:49;;;;;;;30.45;22.00;;;9.00;99.90;;;;;;5057024;28;20184;-74
2023/04/19 05:57:15;;;;;;;33.50;24.17;;;8.90;99.90;;;;;;5039983;28;20369;-74
2023/04/19 05:59:42;;;;;;;35.42;24.33;;;8.90;99.90;;;;;;5056763;28;20049;-74
2023/04/19 06:02:08;;;;;;;33.33;23.98;;;9.00;99.90;;;;;;5056006;28;20473;-74
2023/04/19 06:04:34;;;;;;;34.78;23.95;;;9.20;99.90;;;;;;5039628;28;20052;-75
2023/04/19 06:07:00;;;;;;;32.50;22.95;;;9.50;99.90;;;;;;5057045;28;20029;-75
2023/04/19 06:09:26;;;;;;;32.42;23.23;;;9.60;99.90;;;;;;5056299;28;20579;-75
2023/04/19 06:11:53;;;;;;;31.95;22.10;;;9.80;99.90;;;;;;5058122;28;20028;-75
2023/04/19 06:14:19;;;;;;;27.98;20.17;;;9.80;99.90;;;;;;5029392;28;20056;-74
2023/04/19 06:16:45;;;;;;;29.65;21.35;;;10.10;99.90;;;;;;5048976;28;20034;-74
2023/04/19 06:19:12;;;;;;;29.85;21.35;;;10.20;99.90;;;;;;5044949;28;20055;-74
2023/04/19 06:21:38;;;;;;;27.95;19.17;;;10.30;99.90;;;;;;5052522;28;20047;-75
2023/04/19 06:24:07;;;;;;;27.33;20.52;;;10.40;99.90;;;;;;5054711;28;20383;-75
2023/04/19 06:26:33;;;;;;;26.85;19.95;;;10.40;99.90;;;;;;5054893;28;20021;-74
2023/04/19 06:29:00;;;;;;;29.85;20.42;;;10.50;99.90;;;;;;5048978;28;20126;-75
2023/04/19 06:31:26;;;;;;;29.45;20.83;;;10.60;99.90;;;;;;5051430;28;20037;-75
2023/04/19 06:33:52;;;;;;;25.17;19.55;;;10.70;99.90;;;;;;5045798;28;20048;-74
2023/04/19 06:36:19;;;;;;;26.15;19.15;;;10.80;99.90;;;;;;5059942;28;20037;-75
2023/04/19 06:38:45;;;;;;;22.42;15.73;;;10.90;99.90;;;;;;5036092;28;20049;-75
2023/04/19 06:41:11;;;;;;;25.85;16.63;;;11.00;99.90;;;;;;5036766;28;20025;-74
2023/04/19 06:43:39;;;;;;;25.13;17.17;;;10.90;99.90;;;;;;5052715;28;20044;-75
2023/04/19 06:46:05;;;;;;;22.58;16.65;;;10.80;99.90;;;;;;5041740;28;20026;-74
2023/04/19 06:48:32;;;;;;;25.67;19.00;;;10.90;99.90;;;;;;5053521;28;20029;-75
2023/04/19 06:50:58;;;;;;;25.90;17.60;;;11.10;99.90;;;;;;5035542;28;20032;-66
2023/04/19 06:53:26;;;;;;;25.08;18.55;;;11.40;99.90;;;;;;5054132;28;20041;-75
2023/04/19 06:55:59;;;;;;;21.77;16.00;;;11.60;99.90;;;;;;5052394;28;20045;-74
2023/04/19 06:58:26;;;;;;;22.80;17.45;;;11.60;99.90;;;;;;5052390;28;20055;-74
2023/04/19 07:00:53;;;;;;;22.55;16.08;;;11.60;99.90;;;;;;5052482;28;20029;-74
2023/04/19 07:03:19;;;;;;;25.75;17.75;;;11.50;99.90;;;;;;5051578;28;20486;-74
2023/04/19 07:05:45;;;;;;;24.33;17.05;;;11.60;99.90;;;;;;5052701;28;20036;-74
2023/04/19 07:08:11;;;;;;;25.20;17.70;;;11.80;99.90;;;;;;5042969;28;21021;-75
2023/04/19 07:10:42;;;;;;;25.45;17.30;;;11.90;99.90;;;;;;5048509;28;20029;-76
2023/04/19 07:13:12;;;;;;;23.70;14.57;;;12.00;99.90;;;;;;5053485;28;20472;-75
2023/04/19 07:15:38;;;;;;;19.38;12.70;;;12.10;99.90;;;;;;5038997;28;20032;-75
2023/04/19 07:18:04;;;;;;;23.67;16.35;;;12.20;99.90;;;;;;5033676;28;20392;-75
2023/04/19 07:20:30;;;;;;;23.55;15.02;;;12.10;99.90;;;;;;5046184;28;20498;-75
2023/04/19 07:22:58;;;;;;;24.52;16.58;;;12.10;99.90;;;;;;5052137;28;20032;-75
2023/04/19 07:25:24;;;;;;;23.98;17.58;;;12.30;99.90;;;;;;5052182;28;20025;-72
2023/04/19 07:27:53;;;;;;;21.00;13.90;;;12.50;99.90;;;;;;5050456;28;20036;-71
2023/04/19 07:30:19;;;;;;;22.88;16.48;;;12.50;99.90;;;;;;5049858;28;20025;-74
2023/04/19 07:32:45;;;;;;;23.88;17.45;;;12.50;99.90;;;;;;5052691;28;20031;-74
2023/04/19 07:35:11;;;;;;;20.38;13.18;;;12.40;99.90;;;;;;5052307;28;20033;-74
2023/04/19 07:37:37;;;;;;;21.08;15.27;;;12.40;99.90;;;;;;5052152;28;20467;-74
2023/04/19 07:40:04;;;;;;;20.15;15.52;;;12.40;99.90;;;;;;5052153;28;20041;-74
2023/04/19 07:42:30;;;;;;;21.13;15.68;;;12.60;99.90;;;;;;5050731;28;20036;-74
2023/04/19 07:44:58;;;;;;;23.17;17.17;;;12.90;99.90;;;;;;5051115;28;20033;-74
2023/04/19 07:47:24;;;;;;;22.27;15.85;;;13.20;99.90;;;;;;5050132;28;20028;-74
2023/04/19 07:49:51;;;;;;;19.95;15.07;;;13.30;99.90;;;;;;5052944;28;20391;-70
2023/04/19 07:52:17;;;;;;;21.27;15.27;;;13.70;99.90;;;;;;5049810;28;20092;-73
2023/04/19 07:54:44;;;;;;;18.65;15.45;;;13.80;99.90;;;;;;5050246;28;20033;-74
2023/04/19 07:57:10;;;;;;;18.15;16.02;;;13.80;99.90;;;;;;5050701;28;20360;-73
2023/04/19 07:59:36;;;;;;;19.27;15.23;;;13.90;99.90;;;;;;5052996;28;20048;-74
2023/04/19 08:02:02;;;;;;;18.75;15.23;;;14.10;99.90;;;;;;5051350;28;20400;-74
2023/04/19 08:04:28;;;;;;;20.88;13.25;;;14.20;99.90;;;;;;5051621;28;20037;-74
2023/04/19 08:06:54;;;;;;;18.15;14.82;;;14.30;99.90;;;;;;5051160;28;20490;-73
2023/04/19 08:09:20;;;;;;;18.35;14.73;;;14.30;99.90;;;;;;5052171;28;20037;-73
2023/04/19 08:11:46;;;;;;;19.45;13.55;;;14.20;99.90;;;;;;5052353;28;20036;-74
2023/04/19 08:14:12;;;;;;;17.50;14.48;;;14.40;99.90;;;;;;5050355;28;20029;-73
2023/04/19 08:16:38;;;;;;;16.00;12.02;;;14.60;99.90;;;;;;5050370;28;20029;-73
2023/04/19 08:19:05;;;;;;;17.88;14.98;;;14.70;99.90;;;;;;5050503;28;20052;-73
2023/04/19 08:21:31;;;;;;;16.63;13.70;;;14.90;99.90;;;;;;5049796;28;20041;-73
2023/04/19 08:23:57;;;;;;;16.40;14.23;;;14.90;99.90;;;;;;5051357;28;20403;-74
2023/04/19 08:26:23;;;;;;;18.15;13.15;;;14.90;99.90;;;;;;5050438;28;20025;-71
2023/04/19 08:28:51;;;;;;;10.35;9.27;;;14.90;99.90;;;;;;5048486;28;20387;-72
2023/04/19 08:31:19;;;;;;;18.20;14.95;;;14.90;99.90;;;;;;5041187;28;20030;-72
2023/04/19 08:33:46;;;;;;;16.38;14.35;;;15.10;99.90;;;;;;5049278;28;20036;-72
2023/04/19 08:36:12;;;;;;;17.63;14.00;;;15.10;99.90;;;;;;5049523;28;20028;-75
2023/04/19 08:38:40;;;;;;;20.35;14.25;;;15.30;99.90;;;;;;5051591;28;20390;-81
2023/04/19 08:41:06;;;;;;;15.60;13.90;;;15.50;99.90;;;;;;5044284;28;20022;-75
2023/04/19 08:43:34;;;;;;;15.90;13.52;;;15.50;99.90;;;;;;5033353;28;20400;-74
2023/04/19 08:46:00;;;;;;;16.35;12.95;;;15.30;99.90;;;;;;5044782;28;20033;-73
2023/04/19 08:48:26;;;;;;;16.27;14.05;;;15.40;99.90;;;;;;5045654;28;20036;-67
2023/04/19 08:50:52;;;;;;;18.35;14.43;;;15.50;99.90;;;;;;5047434;28;20025;-73
2023/04/19 08:53:19;;;;;;;17.23;14.05;;;15.80;99.90;;;;;;5047336;28;20041;-73
2023/04/19 08:55:45;;;;;;;16.75;13.48;;;15.90;99.90;;;;;;5065595;28;20029;-74
2023/04/19 08:58:11;;;;;;;17.17;13.50;;;16.00;99.90;;;;;;5049590;28;20044;-74
2023/04/19 09:00:37;;;;;;;14.40;12.63;;;16.20;99.90;;;;;;5050524;28;20029;-74
2023/04/19 09:03:04;;;;;;;14.13;12.65;;;16.30;99.90;;;;;;5051945;28;20025;-74
2023/04/19 09:05:30;;;;;;;14.30;12.80;;;16.60;99.90;;;;;;5049930;28;20029;-74
2023/04/19 09:08:22;;;;;;;14.50;11.45;;;16.80;99.90;;;;;;5049168;28;20391;-74
2023/04/19 09:11:01;;;;;;;11.63;10.43;;;16.70;99.90;;;;;;5049725;28;20032;-75
2023/04/19 09:13:27;;;;;;;13.40;12.00;;;16.90;99.90;;;;;;5046830;28;20471;-74
2023/04/19 09:15:55;;;;;;;12.18;10.98;;;16.70;99.90;;;;;;5046441;28;20407;-74
2023/04/19 09:18:23;;;;;;;10.93;9.02;;;16.80;99.90;;;;;;5048610;28;20244;-74
2023/04/19 09:20:49;;;;;;;11.70;10.50;;;17.00;99.90;;;;;;5046132;28;20036;-73
2023/04/19 09:23:18;;;;;;;8.20;6.70;;;16.90;99.90;;;;;;5036969;28;20508;-73
2023/04/19 09:25:56;;;;;;;10.50;8.95;;;16.80;99.90;;;;;;5032747;28;20595;-73
2023/04/19 09:28:22;;;;;;;12.13;10.65;;;16.70;99.90;;;;;;5049798;28;20036;-81
2023/04/19 09:30:49;;;;;;;12.15;10.90;;;16.70;99.90;;;;;;5032290;28;20037;-67
2023/04/19 09:33:32;;;;;;;12.13;10.50;;;16.60;99.90;;;;;;5017229;28;20045;-66
2023/04/19 09:35:58;;;;;;;14.00;10.95;;;16.70;99.90;;;;;;5037409;28;20048;-73
2023/04/19 09:38:25;;;;;;;12.25;11.00;;;16.80;99.90;;;;;;5046344;28;20047;-73
2023/04/19 09:40:51;;;;;;;11.02;9.70;;;16.90;99.90;;;;;;5050390;28;20037;-73
2023/04/19 09:43:26;;;;;;;12.93;11.13;;;16.90;99.90;;;;;;5012695;28;20041;-73
2023/04/19 09:45:52;;;;;;;11.70;10.50;;;17.00;99.90;;;;;;5046602;28;20511;-73
2023/04/19 09:48:18;;;;;;;11.65;9.98;;;17.20;99.90;;;;;;5062650;28;20041;-74
2023/04/19 09:50:58;;;;;;;13.95;10.65;;;17.40;99.90;;;;;;5050875;28;20036;-73
2023/04/19 09:53:25;;;;;;;11.93;10.77;;;17.50;99.90;;;;;;5035662;28;20041;-73
2023/04/19 09:55:51;;;;;;;12.77;11.05;;;17.60;99.90;;;;;;5052623;28;20028;-74
2023/04/19 09:58:18;;;;;;;11.48;10.27;;;17.80;99.90;;;;;;5052463;28;20483;-73
2023/04/19 10:00:46;;;;;;;8.27;7.35;;;18.00;99.90;;;;;;5043293;28;20048;-73
2023/04/19 10:03:13;;;;;;;11.07;9.88;;;17.80;99.90;;;;;;5026690;28;20032;-73
2023/04/19 10:05:40;;;;;;;12.65;10.73;;;17.70;99.90;;;;;;5016479;28;20033;-73
2023/04/19 10:08:07;;;;;;;12.65;11.40;;;17.70;99.90;;;;;;5031144;28;20041;-74
2023/04/19 10:10:33;;;;;;;12.85;11.65;;;17.80;99.90;;;;;;5016903;28;20029;-74
2023/04/19 10:13:01;;;;;;;11.23;10.02;;;17.80;99.90;;;;;;5033698;28;20500;-73
2023/04/19 10:15:28;;;;;;;12.18;10.98;;;18.00;99.90;;;;;;5031311;28;20041;-73
2023/04/19 10:17:54;;;;;;;11.77;10.57;;;18.00;99.90;;;;;;5008737;28;20038;-73
2023/04/19 10:20:24;;;;;;;11.23;9.73;;;18.00;99.90;;;;;;5035334;28;20038;-74
2023/04/19 10:22:50;;;;;;;12.90;10.20;;;18.20;99.90;;;;;;5000374;28;20041;-73
2023/04/19 10:25:16;;;;;;;10.98;9.88;;;18.10;99.90;;;;;;5013814;28;20033;-74
2023/04/19 10:27:47;;;;;;;11.25;10.20;;;18.30;99.90;;;;;;5012569;28;20384;-74
2023/04/19 10:30:21;;;;;;;11.35;9.48;;;18.50;99.90;;;;;;5010003;28;20108;-73
2023/04/19 10:32:57;;;;;;;9.27;8.38;;;18.70;99.90;;;;;;5032964;28;20021;-73
2023/04/19 10:35:25;;;;;;;9.80;8.55;;;18.30;99.90;;;;;;5032641;28;20034;-73
2023/04/19 10:38:02;;;;;;;10.23;9.23;;;18.30;99.90;;;;;;5031901;28;20034;-74
2023/04/19 10:40:57;;;;;;;10.98;9.20;;;18.50;99.90;;;;;;5031820;28;20038;-74
2023/04/19 10:43:24;;;;;;;9.65;8.75;;;18.60;99.90;;;;;;5065033;28;20484;-73
2023/04/19 10:45:50;;;;;;;11.18;10.18;;;18.60;99.90;;;;;;5015267;28;20044;-73
2023/04/19 10:48:29;;;;;;;9.80;8.90;;;18.70;99.90;;;;;;5031626;28;20032;-73
2023/04/19 10:51:06;;;;;;;7.90;7.20;;;18.80;99.90;;;;;;5023799;28;20044;-73
2023/04/19 10:53:47;;;;;;;9.18;8.27;;;18.90;99.90;;;;;;5029600;28;20033;-73
2023/04/19 10:56:17;;;;;;;10.32;9.32;;;19.00;99.90;;;;;;5033505;28;20034;-73
2023/04/19 10:59:10;;;;;;;10.25;8.68;;;19.00;99.90;;;;;;5015977;28;20534;-73
2023/04/19 11:01:41;;;;;;;9.68;8.75;;;19.20;99.90;;;;;;5032363;28;20033;-74
2023/04/19 11:04:11;;;;;;;9.52;8.50;;;19.20;99.90;;;;;;5032262;28;20515;-74
2023/04/19 11:06:54;;;;;;;7.28;6.57;;;19.20;99.90;;;;;;5031402;28;20029;-74
2023/04/19 11:09:27;;;;;;;9.60;8.70;;;19.30;99.90;;;;;;5015483;28;20415;-74
2023/04/19 11:11:56;;;;;;;9.35;8.38;;;19.40;99.90;;;;;;5032820;28;20052;-74
2023/04/19 11:14:22;;;;;;;9.93;9.02;;;19.70;99.90;;;;;;5011178;28;20030;-74
2023/04/19 11:16:48;;;;;;;9.70;8.77;;;19.80;99.90;;;;;;5028462;28;20037;-74
2023/04/19 11:19:18;;;;;;;9.80;8.40;;;19.80;99.90;;;;;;5032978;28;20052;-74
2023/04/19 11:21:45;;;;;;;9.85;8.27;;;19.80;99.90;;;;;;5013938;28;20392;-74
2023/04/19 11:24:11;;;;;;;8.82;8.02;;;19.60;99.90;;;;;;5031238;28;20037;-73
2023/04/19 11:26:37;;;;;;;9.20;8.27;;;19.70;99.90;;;;;;5031855;28;20021;-74
2023/04/19 11:29:05;;;;;;;9.18;8.38;;;19.80;99.90;;;;;;5029168;28;20033;-74
2023/04/19 11:31:32;;;;;;;9.13;8.23;;;20.10;99.90;;;;;;5001404;28;20030;-74
2023/04/19 11:33:59;;;;;;;8.77;8.02;;;20.00;99.90;;;;;;5011642;28;20136;-74
2023/04/19 11:36:25;;;;;;;7.50;6.80;;;20.10;99.90;;;;;;5000260;28;21317;-74
2023/04/19 11:38:52;;;;;;;8.00;7.30;;;20.40;99.90;;;;;;5022369;28;20044;-74
2023/04/19 11:41:18;;;;;;;5.80;5.32;;;20.20;99.90;;;;;;5031494;28;20372;-75
2023/04/19 11:43:45;;;;;;;8.00;7.30;;;20.20;99.90;;;;;;5031467;28;20080;-74
2023/04/19 11:46:12;;;;;;;9.77;7.97;;;20.10;99.90;;;;;;5032467;28;20029;-74
2023/04/19 11:48:38;;;;;;;8.73;8.02;;;20.20;99.90;;;;;;5015058;28;20361;-74
2023/04/19 11:51:05;;;;;;;7.95;7.28;;;20.30;99.90;;;;;;5031282;28;20029;-73
2023/04/19 11:53:31;;;;;;;8.43;7.63;;;20.30;99.90;;;;;;5028981;28;20045;-73
2023/04/19 11:56:06;;;;;;;8.20;7.60;;;20.40;99.90;;;;;;5031558;28;20034;-74
2023/04/19 11:58:44;;;;;;;8.38;7.68;;;20.60;99.90;;;;;;5032393;28;20037;-73
2023/04/19 12:01:18;;;;;;;7.88;7.20;;;20.80;99.90;;;;;;5030631;28;20052;-74
2023/04/19 12:03:49;;;;;;;7.82;7.22;;;20.60;99.90;;;;;;4995284;28;20040;-74
2023/04/19 12:06:17;;;;;;;8.23;7.63;;;20.70;99.90;;;;;;5022402;28;20033;-73
2023/04/19 12:08:46;;;;;;;8.05;7.38;;;20.80;99.90;;;;;;5029356;28;20547;-74
2023/04/19 12:11:12;;;;;;;8.57;7.82;;;20.70;99.90;;;;;;5031334;28;20056;-74
2023/04/19 12:13:39;;;;;;;7.90;7.30;;;20.80;99.90;;;;;;5029857;28;20392;-74
2023/04/19 12:16:06;;;;;;;8.05;7.45;;;21.00;99.90;;;;;;5031214;28;20411;-73
2023/04/19 12:18:49;;;;;;;8.45;7.75;;;21.00;99.90;;;;;;5030186;28;20025;-73
2023/04/19 12:21:29;;;;;;;8.73;8.02;;;21.10;99.90;;;;;;5030306;28;20033;-73
2023/04/19 12:23:56;;;;;;;8.82;8.23;;;21.00;99.90;;;;;;5020550;28;20037;-74
2023/04/19 12:26:23;;;;;;;8.55;7.95;;;21.10;99.90;;;;;;5010935;28;20030;-74
2023/04/19 12:28:49;;;;;;;8.57;7.95;;;21.10;99.90;;;;;;5012547;28;20033;-74
2023/04/19 12:31:15;;;;;;;8.32;7.72;;;21.30;99.90;;;;;;5030338;28;20060;-74
2023/04/19 12:33:41;;;;;;;8.25;7.60;;;21.50;99.90;;;;;;5030572;28;20387;-73